sensor_id;sensor_type;location;lat;lon;timestamp;P1;durP1;ratioP1;P2;durP2;ratioP2
14381;SDS011;7275;50.328;8.720;2023-01-24T00:00:51;8.13;;;5.73;;
14381;SDS011;7275;50.328;8.720;2023-01-24T00:03:19;7.27;;;5.57;;
14381;SDS011;7275;50.328;8.720;2023-01-24T00:05:49;7.67;;;5.83;;
14381;SDS011;7275;50.328;8.720;2023-01-24T00:08:17;8.73;;;6.13;;
14381;SDS011;7275;50.328;8.720;2023-01-24T00:10:48;7.37;;;5.50;;
14381;SDS011;7275;50.328;8.720;2023-01-24T00:13:24;8.57;;;5.93;;
14381;SDS011;7275;50.328;8.720;2023-01-24T00:15:51;7.73;;;5.63;;
14381;SDS011;7275;50.328;8.720;2023-01-24T00:18:27;7.33;;;5.63;;
14381;SDS011;7275;50.328;8.720;2023-01-24T00:21:01;8.23;;;5.73;;
14381;SDS011;7275;50.328;8.720;2023-01-24T00:23:29;7.43;;;5.67;;
14381;SDS011;7275;50.328;8.720;2023-01-24T00:25:57;7.93;;;5.30;;
14381;SDS011;7275;50.328;8.720;2023-01-24T00:28:24;7.83;;;5.70;;
14381;SDS011;7275;50.328;8.720;2023-01-24T00:30:52;7.20;;;5.80;;
14381;SDS011;7275;50.328;8.720;2023-01-24T00:33:19;6.93;;;5.77;;
14381;SDS011;7275;50.328;8.720;2023-01-24T00:35:48;7.30;;;5.43;;
14381;SDS011;7275;50.328;8.720;2023-01-24T00:38:17;7.93;;;5.80;;
14381;SDS011;7275;50.328;8.720;2023-01-24T00:40:45;8.67;;;5.83;;
14381;SDS011;7275;50.328;8.720;2023-01-24T00:43:13;8.50;;;6.03;;
14381;SDS011;7275;50.328;8.720;2023-01-24T00:45:40;6.80;;;5.67;;
14381;SDS011;7275;50.328;8.720;2023-01-24T00:48:09;8.17;;;5.50;;
14381;SDS011;7275;50.328;8.720;2023-01-24T00:50:36;8.77;;;6.27;;
14381;SDS011;7275;50.328;8.720;2023-01-24T00:53:04;8.73;;;5.80;;
14381;SDS011;7275;50.328;8.720;2023-01-24T00:55:33;7.07;;;5.27;;
14381;SDS011;7275;50.328;8.720;2023-01-24T00:58:01;7.63;;;5.60;;
14381;SDS011;7275;50.328;8.720;2023-01-24T01:00:28;7.63;;;5.40;;
14381;SDS011;7275;50.328;8.720;2023-01-24T01:02:55;8.63;;;6.00;;
14381;SDS011;7275;50.328;8.720;2023-01-24T01:05:23;8.73;;;6.23;;
14381;SDS011;7275;50.328;8.720;2023-01-24T01:07:50;8.17;;;6.13;;
14381;SDS011;7275;50.328;8.720;2023-01-24T01:10:18;9.23;;;6.53;;
14381;SDS011;7275;50.328;8.720;2023-01-24T01:12:47;8.10;;;6.40;;
14381;SDS011;7275;50.328;8.720;2023-01-24T01:15:14;8.00;;;6.30;;
14381;SDS011;7275;50.328;8.720;2023-01-24T01:17:42;8.77;;;6.10;;
14381;SDS011;7275;50.328;8.720;2023-01-24T01:20:10;9.53;;;6.20;;
14381;SDS011;7275;50.328;8.720;2023-01-24T01:22:38;9.60;;;6.50;;
14381;SDS011;7275;50.328;8.720;2023-01-24T01:25:05;9.13;;;6.57;;
14381;SDS011;7275;50.328;8.720;2023-01-24T01:27:33;8.37;;;6.33;;
14381;SDS011;7275;50.328;8.720;2023-01-24T01:30:02;8.93;;;6.37;;
14381;SDS011;7275;50.328;8.720;2023-01-24T01:32:31;8.07;;;6.33;;
14381;SDS011;7275;50.328;8.720;2023-01-24T01:34:58;9.00;;;6.67;;
14381;SDS011;7275;50.328;8.720;2023-01-24T01:37:26;8.73;;;6.23;;
14381;SDS011;7275;50.328;8.720;2023-01-24T01:39:53;8.80;;;6.70;;
14381;SDS011;7275;50.328;8.720;2023-01-24T01:42:21;9.47;;;6.50;;
14381;SDS011;7275;50.328;8.720;2023-01-24T01:44:49;9.13;;;7.00;;
14381;SDS011;7275;50.328;8.720;2023-01-24T01:47:20;8.57;;;6.33;;
14381;SDS011;7275;50.328;8.720;2023-01-24T01:49:53;9.43;;;6.83;;
14381;SDS011;7275;50.328;8.720;2023-01-24T01:52:29;9.03;;;6.80;;
14381;SDS011;7275;50.328;8.720;2023-01-24T01:55:03;9.57;;;6.77;;
14381;SDS011;7275;50.328;8.720;2023-01-24T01:57:33;9.40;;;7.03;;
14381;SDS011;7275;50.328;8.720;2023-01-24T02:00:04;9.57;;;6.73;;
14381;SDS011;7275;50.328;8.720;2023-01-24T02:02:36;9.20;;;6.63;;
14381;SDS011;7275;50.328;8.720;2023-01-24T02:05:05;9.50;;;6.60;;
14381;SDS011;7275;50.328;8.720;2023-01-24T02:07:36;8.63;;;6.30;;
14381;SDS011;7275;50.328;8.720;2023-01-24T02:10:09;9.90;;;6.43;;
14381;SDS011;7275;50.328;8.720;2023-01-24T02:12:37;8.50;;;6.83;;
14381;SDS011;7275;50.328;8.720;2023-01-24T02:15:09;7.73;;;6.10;;
14381;SDS011;7275;50.328;8.720;2023-01-24T02:17:57;10.40;;;6.90;;
14381;SDS011;7275;50.328;8.720;2023-01-24T02:20:30;8.33;;;6.23;;
14381;SDS011;7275;50.328;8.720;2023-01-24T02:23:10;8.40;;;6.60;;
14381;SDS011;7275;50.328;8.720;2023-01-24T02:25:50;8.77;;;5.93;;
14381;SDS011;7275;50.328;8.720;2023-01-24T02:28:28;10.33;;;7.30;;
14381;SDS011;7275;50.328;8.720;2023-01-24T02:30:56;8.63;;;7.00;;
14381;SDS011;7275;50.328;8.720;2023-01-24T02:33:24;9.43;;;6.60;;
14381;SDS011;7275;50.328;8.720;2023-01-24T02:35:56;9.50;;;7.13;;
14381;SDS011;7275;50.328;8.720;2023-01-24T02:38:39;8.07;;;6.23;;
14381;SDS011;7275;50.328;8.720;2023-01-24T02:41:09;8.27;;;6.30;;
14381;SDS011;7275;50.328;8.720;2023-01-24T02:43:38;7.40;;;5.83;;
14381;SDS011;7275;50.328;8.720;2023-01-24T02:46:09;10.33;;;6.50;;
14381;SDS011;7275;50.328;8.720;2023-01-24T02:48:37;8.20;;;6.27;;
14381;SDS011;7275;50.328;8.720;2023-01-24T02:51:05;9.00;;;6.97;;
14381;SDS011;7275;50.328;8.720;2023-01-24T02:53:50;9.77;;;7.03;;
14381;SDS011;7275;50.328;8.720;2023-01-24T02:56:19;10.10;;;7.23;;
14381;SDS011;7275;50.328;8.720;2023-01-24T02:59:09;9.23;;;7.00;;
14381;SDS011;7275;50.328;8.720;2023-01-24T03:01:36;9.30;;;6.97;;
14381;SDS011;7275;50.328;8.720;2023-01-24T03:04:04;9.77;;;7.00;;
14381;SDS011;7275;50.328;8.720;2023-01-24T03:06:31;9.70;;;6.53;;
14381;SDS011;7275;50.328;8.720;2023-01-24T03:08:59;10.67;;;7.27;;
14381;SDS011;7275;50.328;8.720;2023-01-24T03:11:46;10.20;;;7.10;;
14381;SDS011;7275;50.328;8.720;2023-01-24T03:14:15;9.67;;;7.57;;
14381;SDS011;7275;50.328;8.720;2023-01-24T03:17:01;10.27;;;7.30;;
14381;SDS011;7275;50.328;8.720;2023-01-24T03:19:46;9.30;;;6.73;;
14381;SDS011;7275;50.328;8.720;2023-01-24T03:22:31;9.60;;;7.30;;
14381;SDS011;7275;50.328;8.720;2023-01-24T03:25:17;8.83;;;6.43;;
14381;SDS011;7275;50.328;8.720;2023-01-24T03:28:04;10.10;;;7.43;;
14381;SDS011;7275;50.328;8.720;2023-01-24T03:30:49;8.70;;;6.53;;
14381;SDS011;7275;50.328;8.720;2023-01-24T03:33:34;8.20;;;6.50;;
14381;SDS011;7275;50.328;8.720;2023-01-24T03:36:20;8.33;;;6.27;;
14381;SDS011;7275;50.328;8.720;2023-01-24T03:38:57;9.13;;;7.20;;
14381;SDS011;7275;50.328;8.720;2023-01-24T03:41:42;10.60;;;7.50;;
14381;SDS011;7275;50.328;8.720;2023-01-24T03:44:11;8.30;;;6.20;;
14381;SDS011;7275;50.328;8.720;2023-01-24T03:46:38;9.60;;;7.30;;
14381;SDS011;7275;50.328;8.720;2023-01-24T03:49:06;8.00;;;6.60;;
14381;SDS011;7275;50.328;8.720;2023-01-24T03:51:34;8.67;;;6.73;;
14381;SDS011;7275;50.328;8.720;2023-01-24T03:54:19;7.83;;;6.17;;
14381;SDS011;7275;50.328;8.720;2023-01-24T03:56:47;8.80;;;6.63;;
14381;SDS011;7275;50.328;8.720;2023-01-24T03:59:17;10.00;;;7.07;;
14381;SDS011;7275;50.328;8.720;2023-01-24T04:01:44;10.03;;;7.33;;
14381;SDS011;7275;50.328;8.720;2023-01-24T04:04:12;7.77;;;6.33;;
14381;SDS011;7275;50.328;8.720;2023-01-24T04:06:39;8.33;;;6.60;;
14381;SDS011;7275;50.328;8.720;2023-01-24T04:09:07;8.60;;;6.23;;
14381;SDS011;7275;50.328;8.720;2023-01-24T04:11:34;8.90;;;6.60;;
14381;SDS011;7275;50.328;8.720;2023-01-24T04:14:01;8.37;;;6.37;;
14381;SDS011;7275;50.328;8.720;2023-01-24T04:16:30;8.17;;;6.33;;
14381;SDS011;7275;50.328;8.720;2023-01-24T04:18:58;8.87;;;7.10;;
14381;SDS011;7275;50.328;8.720;2023-01-24T04:21:25;9.47;;;7.17;;
14381;SDS011;7275;50.328;8.720;2023-01-24T04:23:53;11.20;;;8.10;;
14381;SDS011;7275;50.328;8.720;2023-01-24T04:26:20;9.50;;;7.00;;
14381;SDS011;7275;50.328;8.720;2023-01-24T04:28:48;9.00;;;7.37;;
14381;SDS011;7275;50.328;8.720;2023-01-24T04:31:15;9.87;;;7.20;;
14381;SDS011;7275;50.328;8.720;2023-01-24T04:33:44;10.13;;;7.60;;
14381;SDS011;7275;50.328;8.720;2023-01-24T04:36:12;9.07;;;7.23;;
14381;SDS011;7275;50.328;8.720;2023-01-24T04:38:40;9.47;;;7.20;;
14381;SDS011;7275;50.328;8.720;2023-01-24T04:41:07;10.27;;;7.57;;
14381;SDS011;7275;50.328;8.720;2023-01-24T04:43:38;8.57;;;6.60;;
14381;SDS011;7275;50.328;8.720;2023-01-24T04:46:06;9.10;;;7.23;;
14381;SDS011;7275;50.328;8.720;2023-01-24T04:48:33;10.17;;;6.97;;
14381;SDS011;7275;50.328;8.720;2023-01-24T04:51:02;9.27;;;7.00;;
14381;SDS011;7275;50.328;8.720;2023-01-24T04:53:30;11.13;;;7.50;;
14381;SDS011;7275;50.328;8.720;2023-01-24T04:56:01;9.73;;;7.23;;
14381;SDS011;7275;50.328;8.720;2023-01-24T04:58:28;9.33;;;7.20;;
14381;SDS011;7275;50.328;8.720;2023-01-24T05:00:56;8.67;;;6.77;;
14381;SDS011;7275;50.328;8.720;2023-01-24T05:03:25;10.10;;;7.63;;
14381;SDS011;7275;50.328;8.720;2023-01-24T05:05:54;10.10;;;7.20;;
14381;SDS011;7275;50.328;8.720;2023-01-24T05:08:23;9.23;;;7.17;;
14381;SDS011;7275;50.328;8.720;2023-01-24T05:10:52;10.00;;;7.40;;
14381;SDS011;7275;50.328;8.720;2023-01-24T05:13:19;10.27;;;7.67;;
14381;SDS011;7275;50.328;8.720;2023-01-24T05:15:47;11.23;;;8.33;;
14381;SDS011;7275;50.328;8.720;2023-01-24T05:18:15;9.93;;;7.93;;
14381;SDS011;7275;50.328;8.720;2023-01-24T05:20:43;10.83;;;8.40;;
14381;SDS011;7275;50.328;8.720;2023-01-24T05:23:11;9.40;;;7.37;;
14381;SDS011;7275;50.328;8.720;2023-01-24T05:25:40;10.57;;;8.47;;
14381;SDS011;7275;50.328;8.720;2023-01-24T05:28:07;10.60;;;8.50;;
14381;SDS011;7275;50.328;8.720;2023-01-24T05:30:34;11.57;;;8.97;;
14381;SDS011;7275;50.328;8.720;2023-01-24T05:33:02;10.33;;;8.27;;
14381;SDS011;7275;50.328;8.720;2023-01-24T05:35:30;11.10;;;8.60;;
14381;SDS011;7275;50.328;8.720;2023-01-24T05:37:57;12.17;;;9.00;;
14381;SDS011;7275;50.328;8.720;2023-01-24T05:40:25;10.83;;;8.73;;
14381;SDS011;7275;50.328;8.720;2023-01-24T05:42:54;11.17;;;8.63;;
14381;SDS011;7275;50.328;8.720;2023-01-24T05:45:21;10.17;;;8.23;;
14381;SDS011;7275;50.328;8.720;2023-01-24T05:47:49;10.77;;;8.70;;
14381;SDS011;7275;50.328;8.720;2023-01-24T05:50:17;9.73;;;7.50;;
14381;SDS011;7275;50.328;8.720;2023-01-24T05:52:44;10.70;;;8.07;;
14381;SDS011;7275;50.328;8.720;2023-01-24T05:55:12;11.20;;;8.30;;
14381;SDS011;7275;50.328;8.720;2023-01-24T05:57:39;10.57;;;8.30;;
14381;SDS011;7275;50.328;8.720;2023-01-24T06:00:09;11.40;;;8.70;;
14381;SDS011;7275;50.328;8.720;2023-01-24T06:02:37;10.77;;;8.73;;
14381;SDS011;7275;50.328;8.720;2023-01-24T06:05:05;12.47;;;8.17;;
14381;SDS011;7275;50.328;8.720;2023-01-24T06:07:33;10.90;;;8.60;;
14381;SDS011;7275;50.328;8.720;2023-01-24T06:10:01;12.10;;;9.47;;
14381;SDS011;7275;50.328;8.720;2023-01-24T06:12:28;11.23;;;9.10;;
14381;SDS011;7275;50.328;8.720;2023-01-24T06:14:56;12.20;;;8.90;;
14381;SDS011;7275;50.328;8.720;2023-01-24T06:17:24;11.03;;;8.53;;
14381;SDS011;7275;50.328;8.720;2023-01-24T06:19:52;10.70;;;8.13;;
14381;SDS011;7275;50.328;8.720;2023-01-24T06:22:21;11.47;;;8.73;;
14381;SDS011;7275;50.328;8.720;2023-01-24T06:24:53;11.97;;;9.70;;
14381;SDS011;7275;50.328;8.720;2023-01-24T06:27:21;13.53;;;10.60;;
14381;SDS011;7275;50.328;8.720;2023-01-24T06:29:49;16.30;;;11.20;;
14381;SDS011;7275;50.328;8.720;2023-01-24T06:32:21;14.00;;;10.57;;
14381;SDS011;7275;50.328;8.720;2023-01-24T06:35:04;14.07;;;11.03;;
14381;SDS011;7275;50.328;8.720;2023-01-24T06:37:41;13.10;;;10.03;;
14381;SDS011;7275;50.328;8.720;2023-01-24T06:40:13;12.73;;;9.70;;
14381;SDS011;7275;50.328;8.720;2023-01-24T06:42:43;12.83;;;9.47;;
14381;SDS011;7275;50.328;8.720;2023-01-24T06:45:11;12.23;;;9.90;;
14381;SDS011;7275;50.328;8.720;2023-01-24T06:47:40;11.63;;;9.20;;
14381;SDS011;7275;50.328;8.720;2023-01-24T06:50:10;11.20;;;9.17;;
14381;SDS011;7275;50.328;8.720;2023-01-24T06:52:40;12.40;;;9.90;;
14381;SDS011;7275;50.328;8.720;2023-01-24T06:55:08;11.57;;;9.20;;
14381;SDS011;7275;50.328;8.720;2023-01-24T06:57:35;13.13;;;10.47;;
14381;SDS011;7275;50.328;8.720;2023-01-24T07:00:03;12.07;;;9.50;;
14381;SDS011;7275;50.328;8.720;2023-01-24T07:02:32;13.00;;;10.07;;
14381;SDS011;7275;50.328;8.720;2023-01-24T07:05:01;14.63;;;11.40;;
14381;SDS011;7275;50.328;8.720;2023-01-24T07:07:28;13.20;;;10.17;;
14381;SDS011;7275;50.328;8.720;2023-01-24T07:09:56;14.27;;;11.00;;
14381;SDS011;7275;50.328;8.720;2023-01-24T07:12:23;14.57;;;10.73;;
14381;SDS011;7275;50.328;8.720;2023-01-24T07:14:50;15.50;;;11.90;;
14381;SDS011;7275;50.328;8.720;2023-01-24T07:17:18;16.97;;;12.90;;
14381;SDS011;7275;50.328;8.720;2023-01-24T07:19:46;15.53;;;12.13;;
14381;SDS011;7275;50.328;8.720;2023-01-24T07:22:16;20.10;;;12.63;;
14381;SDS011;7275;50.328;8.720;2023-01-24T07:24:44;14.50;;;10.97;;
14381;SDS011;7275;50.328;8.720;2023-01-24T07:27:13;16.43;;;11.57;;
14381;SDS011;7275;50.328;8.720;2023-01-24T07:29:41;15.90;;;11.57;;
14381;SDS011;7275;50.328;8.720;2023-01-24T07:32:09;13.70;;;10.40;;
14381;SDS011;7275;50.328;8.720;2023-01-24T07:34:37;14.37;;;10.80;;
14381;SDS011;7275;50.328;8.720;2023-01-24T07:37:05;12.50;;;9.67;;
14381;SDS011;7275;50.328;8.720;2023-01-24T07:39:35;12.97;;;10.03;;
14381;SDS011;7275;50.328;8.720;2023-01-24T07:42:02;13.13;;;9.87;;
14381;SDS011;7275;50.328;8.720;2023-01-24T07:44:30;16.23;;;11.77;;
14381;SDS011;7275;50.328;8.720;2023-01-24T07:46:57;17.33;;;11.80;;
14381;SDS011;7275;50.328;8.720;2023-01-24T07:49:25;16.63;;;10.63;;
14381;SDS011;7275;50.328;8.720;2023-01-24T07:51:52;16.03;;;11.70;;
14381;SDS011;7275;50.328;8.720;2023-01-24T07:54:20;18.10;;;12.40;;
14381;SDS011;7275;50.328;8.720;2023-01-24T07:56:48;14.97;;;10.87;;
14381;SDS011;7275;50.328;8.720;2023-01-24T07:59:17;14.33;;;10.67;;
14381;SDS011;7275;50.328;8.720;2023-01-24T08:02:02;13.77;;;10.80;;
14381;SDS011;7275;50.328;8.720;2023-01-24T08:04:30;16.67;;;11.80;;
14381;SDS011;7275;50.328;8.720;2023-01-24T08:06:59;15.10;;;11.90;;
14381;SDS011;7275;50.328;8.720;2023-01-24T08:09:46;13.93;;;10.67;;
14381;SDS011;7275;50.328;8.720;2023-01-24T08:12:20;15.00;;;11.07;;
14381;SDS011;7275;50.328;8.720;2023-01-24T08:14:47;13.60;;;11.30;;
14381;SDS011;7275;50.328;8.720;2023-01-24T08:17:15;19.07;;;13.17;;
14381;SDS011;7275;50.328;8.720;2023-01-24T08:19:43;16.80;;;12.87;;
14381;SDS011;7275;50.328;8.720;2023-01-24T08:22:26;15.23;;;11.73;;
14381;SDS011;7275;50.328;8.720;2023-01-24T08:24:53;13.93;;;10.70;;
14381;SDS011;7275;50.328;8.720;2023-01-24T08:27:22;13.97;;;11.47;;
14381;SDS011;7275;50.328;8.720;2023-01-24T08:29:50;14.47;;;10.90;;
14381;SDS011;7275;50.328;8.720;2023-01-24T08:32:17;12.37;;;10.43;;
14381;SDS011;7275;50.328;8.720;2023-01-24T08:34:45;12.37;;;9.80;;
14381;SDS011;7275;50.328;8.720;2023-01-24T08:37:12;11.00;;;9.20;;
14381;SDS011;7275;50.328;8.720;2023-01-24T08:39:40;12.30;;;9.27;;
14381;SDS011;7275;50.328;8.720;2023-01-24T08:42:07;11.63;;;9.70;;
14381;SDS011;7275;50.328;8.720;2023-01-24T08:44:37;10.30;;;8.83;;
14381;SDS011;7275;50.328;8.720;2023-01-24T08:47:05;12.77;;;10.20;;
14381;SDS011;7275;50.328;8.720;2023-01-24T08:49:32;11.63;;;9.43;;
14381;SDS011;7275;50.328;8.720;2023-01-24T08:52:00;11.37;;;9.27;;
14381;SDS011;7275;50.328;8.720;2023-01-24T08:54:27;13.43;;;9.77;;
14381;SDS011;7275;50.328;8.720;2023-01-24T08:56:58;11.97;;;9.00;;
14381;SDS011;7275;50.328;8.720;2023-01-24T08:59:26;13.33;;;10.13;;
14381;SDS011;7275;50.328;8.720;2023-01-24T09:01:55;12.80;;;9.33;;
14381;SDS011;7275;50.328;8.720;2023-01-24T09:04:22;11.03;;;9.20;;
14381;SDS011;7275;50.328;8.720;2023-01-24T09:06:52;12.83;;;10.07;;
14381;SDS011;7275;50.328;8.720;2023-01-24T09:09:20;12.67;;;9.97;;
14381;SDS011;7275;50.328;8.720;2023-01-24T09:11:47;14.10;;;9.67;;
14381;SDS011;7275;50.328;8.720;2023-01-24T09:14:15;11.20;;;9.03;;
14381;SDS011;7275;50.328;8.720;2023-01-24T09:16:42;11.23;;;8.93;;
14381;SDS011;7275;50.328;8.720;2023-01-24T09:19:11;10.13;;;8.70;;
14381;SDS011;7275;50.328;8.720;2023-01-24T09:21:39;11.20;;;8.93;;
14381;SDS011;7275;50.328;8.720;2023-01-24T09:24:07;11.60;;;9.27;;
14381;SDS011;7275;50.328;8.720;2023-01-24T09:26:34;11.57;;;9.70;;
14381;SDS011;7275;50.328;8.720;2023-01-24T09:29:02;12.10;;;10.03;;
14381;SDS011;7275;50.328;8.720;2023-01-24T09:31:29;11.43;;;9.43;;
14381;SDS011;7275;50.328;8.720;2023-01-24T09:33:57;9.93;;;8.23;;
14381;SDS011;7275;50.328;8.720;2023-01-24T09:36:26;12.13;;;9.40;;
14381;SDS011;7275;50.328;8.720;2023-01-24T09:38:55;11.07;;;8.80;;
14381;SDS011;7275;50.328;8.720;2023-01-24T09:41:35;10.97;;;8.33;;
14381;SDS011;7275;50.328;8.720;2023-01-24T09:44:15;9.50;;;8.00;;
14381;SDS011;7275;50.328;8.720;2023-01-24T09:46:48;10.23;;;8.73;;
14381;SDS011;7275;50.328;8.720;2023-01-24T09:49:21;10.30;;;8.30;;
14381;SDS011;7275;50.328;8.720;2023-01-24T09:51:55;10.33;;;8.53;;
14381;SDS011;7275;50.328;8.720;2023-01-24T09:54:26;13.83;;;10.40;;
14381;SDS011;7275;50.328;8.720;2023-01-24T09:56:58;18.10;;;12.43;;
14381;SDS011;7275;50.328;8.720;2023-01-24T09:59:28;18.47;;;12.47;;
14381;SDS011;7275;50.328;8.720;2023-01-24T10:02:05;16.83;;;12.33;;
14381;SDS011;7275;50.328;8.720;2023-01-24T10:04:42;13.03;;;10.17;;
14381;SDS011;7275;50.328;8.720;2023-01-24T10:07:15;11.60;;;9.47;;
14381;SDS011;7275;50.328;8.720;2023-01-24T10:09:59;11.37;;;9.73;;
14381;SDS011;7275;50.328;8.720;2023-01-24T10:12:37;9.73;;;8.17;;
14381;SDS011;7275;50.328;8.720;2023-01-24T10:15:17;8.97;;;7.47;;
14381;SDS011;7275;50.328;8.720;2023-01-24T10:18:00;10.10;;;8.13;;
14381;SDS011;7275;50.328;8.720;2023-01-24T10:20:38;10.00;;;7.93;;
14381;SDS011;7275;50.328;8.720;2023-01-24T10:23:18;10.77;;;8.27;;
14381;SDS011;7275;50.328;8.720;2023-01-24T10:25:49;11.10;;;7.93;;
14381;SDS011;7275;50.328;8.720;2023-01-24T10:28:22;9.03;;;7.47;;
14381;SDS011;7275;50.328;8.720;2023-01-24T10:31:00;8.87;;;7.23;;
14381;SDS011;7275;50.328;8.720;2023-01-24T10:33:33;8.33;;;6.80;;
14381;SDS011;7275;50.328;8.720;2023-01-24T10:36:06;7.70;;;6.63;;
14381;SDS011;7275;50.328;8.720;2023-01-24T10:38:39;8.53;;;7.27;;
14381;SDS011;7275;50.328;8.720;2023-01-24T10:41:13;7.67;;;6.27;;
14381;SDS011;7275;50.328;8.720;2023-01-24T10:43:46;9.07;;;6.80;;
14381;SDS011;7275;50.328;8.720;2023-01-24T10:46:25;8.00;;;6.93;;
14381;SDS011;7275;50.328;8.720;2023-01-24T10:49:06;24.83;;;19.43;;
14381;SDS011;7275;50.328;8.720;2023-01-24T10:51:39;14.63;;;13.13;;
14381;SDS011;7275;50.328;8.720;2023-01-24T10:54:10;23.00;;;20.23;;
14381;SDS011;7275;50.328;8.720;2023-01-24T10:56:46;36.83;;;31.40;;
14381;SDS011;7275;50.328;8.720;2023-01-24T10:59:14;45.97;;;36.03;;
14381;SDS011;7275;50.328;8.720;2023-01-24T11:01:42;24.23;;;21.00;;
14381;SDS011;7275;50.328;8.720;2023-01-24T11:04:12;15.47;;;12.97;;
14381;SDS011;7275;50.328;8.720;2023-01-24T11:06:44;11.83;;;10.23;;
14381;SDS011;7275;50.328;8.720;2023-01-24T11:09:15;9.67;;;8.67;;
14381;SDS011;7275;50.328;8.720;2023-01-24T11:11:46;10.40;;;9.23;;
14381;SDS011;7275;50.328;8.720;2023-01-24T11:14:17;9.90;;;8.90;;
14381;SDS011;7275;50.328;8.720;2023-01-24T11:16:50;8.23;;;7.40;;
14381;SDS011;7275;50.328;8.720;2023-01-24T11:19:23;8.30;;;7.30;;
14381;SDS011;7275;50.328;8.720;2023-01-24T11:21:55;7.80;;;6.80;;
14381;SDS011;7275;50.328;8.720;2023-01-24T11:24:25;8.63;;;7.73;;
14381;SDS011;7275;50.328;8.720;2023-01-24T11:26:55;8.87;;;7.53;;
14381;SDS011;7275;50.328;8.720;2023-01-24T11:29:25;7.90;;;6.70;;
14381;SDS011;7275;50.328;8.720;2023-01-24T11:31:53;7.80;;;6.50;;
14381;SDS011;7275;50.328;8.720;2023-01-24T11:34:25;7.40;;;6.60;;
14381;SDS011;7275;50.328;8.720;2023-01-24T11:37:12;8.47;;;6.90;;
14381;SDS011;7275;50.328;8.720;2023-01-24T11:39:56;8.40;;;7.60;;
14381;SDS011;7275;50.328;8.720;2023-01-24T11:42:30;8.13;;;7.33;;
14381;SDS011;7275;50.328;8.720;2023-01-24T11:48:04;7.77;;;6.73;;
14381;SDS011;7275;50.328;8.720;2023-01-24T11:50:37;6.67;;;6.00;;
14381;SDS011;7275;50.328;8.720;2023-01-24T11:53:17;7.30;;;6.53;;
14381;SDS011;7275;50.328;8.720;2023-01-24T11:55:59;6.67;;;5.83;;
14381;SDS011;7275;50.328;8.720;2023-01-24T11:58:43;7.03;;;5.93;;
14381;SDS011;7275;50.328;8.720;2023-01-24T12:01:21;6.20;;;5.60;;
14381;SDS011;7275;50.328;8.720;2023-01-24T12:04:03;6.53;;;5.77;;
14381;SDS011;7275;50.328;8.720;2023-01-24T12:06:44;6.87;;;6.03;;
14381;SDS011;7275;50.328;8.720;2023-01-24T12:09:22;6.60;;;5.90;;
14381;SDS011;7275;50.328;8.720;2023-01-24T12:11:55;6.63;;;5.83;;
14381;SDS011;7275;50.328;8.720;2023-01-24T12:14:41;6.93;;;5.87;;
14381;SDS011;7275;50.328;8.720;2023-01-24T12:17:27;6.43;;;5.60;;
14381;SDS011;7275;50.328;8.720;2023-01-24T12:23:10;6.57;;;5.40;;
14381;SDS011;7275;50.328;8.720;2023-01-24T12:25:44;6.50;;;5.57;;
14381;SDS011;7275;50.328;8.720;2023-01-24T12:28:16;7.17;;;5.93;;
14381;SDS011;7275;50.328;8.720;2023-01-24T12:30:53;6.60;;;5.50;;
14381;SDS011;7275;50.328;8.720;2023-01-24T12:33:26;7.10;;;5.93;;
14381;SDS011;7275;50.328;8.720;2023-01-24T12:35:59;6.30;;;5.30;;
14381;SDS011;7275;50.328;8.720;2023-01-24T12:38:29;8.13;;;6.17;;
14381;SDS011;7275;50.328;8.720;2023-01-24T12:41:05;6.83;;;5.63;;
14381;SDS011;7275;50.328;8.720;2023-01-24T12:43:45;7.27;;;5.47;;
14381;SDS011;7275;50.328;8.720;2023-01-24T12:46:20;5.67;;;5.07;;
14381;SDS011;7275;50.328;8.720;2023-01-24T12:48:53;5.83;;;5.23;;
14381;SDS011;7275;50.328;8.720;2023-01-24T12:51:41;5.53;;;4.80;;
14381;SDS011;7275;50.328;8.720;2023-01-24T12:54:14;6.80;;;5.67;;
14381;SDS011;7275;50.328;8.720;2023-01-24T12:56:46;6.40;;;5.13;;
14381;SDS011;7275;50.328;8.720;2023-01-24T12:59:22;5.37;;;4.67;;
14381;SDS011;7275;50.328;8.720;2023-01-24T13:02:03;5.67;;;5.00;;
14381;SDS011;7275;50.328;8.720;2023-01-24T13:04:48;5.73;;;4.77;;
14381;SDS011;7275;50.328;8.720;2023-01-24T13:07:23;5.77;;;4.97;;
14381;SDS011;7275;50.328;8.720;2023-01-24T13:10:01;5.77;;;4.90;;
14381;SDS011;7275;50.328;8.720;2023-01-24T13:12:36;6.57;;;5.23;;
14381;SDS011;7275;50.328;8.720;2023-01-24T13:15:09;6.00;;;5.40;;
14381;SDS011;7275;50.328;8.720;2023-01-24T13:17:47;5.70;;;5.10;;
14381;SDS011;7275;50.328;8.720;2023-01-24T13:20:31;4.67;;;4.27;;
14381;SDS011;7275;50.328;8.720;2023-01-24T13:23:13;4.90;;;4.33;;
14381;SDS011;7275;50.328;8.720;2023-01-24T13:25:56;4.70;;;4.20;;
14381;SDS011;7275;50.328;8.720;2023-01-24T13:28:40;5.50;;;4.80;;
14381;SDS011;7275;50.328;8.720;2023-01-24T13:31:19;6.67;;;5.33;;
14381;SDS011;7275;50.328;8.720;2023-01-24T13:33:55;5.73;;;5.13;;
14381;SDS011;7275;50.328;8.720;2023-01-24T13:36:29;7.00;;;4.87;;
14381;SDS011;7275;50.328;8.720;2023-01-24T13:38:59;6.40;;;5.40;;
14381;SDS011;7275;50.328;8.720;2023-01-24T13:41:33;6.13;;;5.23;;
14381;SDS011;7275;50.328;8.720;2023-01-24T13:44:04;6.43;;;5.70;;
14381;SDS011;7275;50.328;8.720;2023-01-24T13:52:48;6.73;;;5.63;;
14381;SDS011;7275;50.328;8.720;2023-01-24T13:58:25;6.60;;;5.13;;
14381;SDS011;7275;50.328;8.720;2023-01-24T14:00:54;5.93;;;5.07;;
14381;SDS011;7275;50.328;8.720;2023-01-24T14:03:27;6.40;;;5.33;;
14381;SDS011;7275;50.328;8.720;2023-01-24T14:06:06;5.27;;;4.47;;
14381;SDS011;7275;50.328;8.720;2023-01-24T14:08:36;5.47;;;4.90;;
14381;SDS011;7275;50.328;8.720;2023-01-24T14:13:58;5.77;;;4.77;;
14381;SDS011;7275;50.328;8.720;2023-01-24T14:19:35;5.70;;;5.10;;
14381;SDS011;7275;50.328;8.720;2023-01-24T14:22:06;6.97;;;5.77;;
14381;SDS011;7275;50.328;8.720;2023-01-24T14:24:49;6.60;;;5.63;;
14381;SDS011;7275;50.328;8.720;2023-01-24T14:27:21;5.83;;;5.03;;
14381;SDS011;7275;50.328;8.720;2023-01-24T14:29:57;6.50;;;5.73;;
14381;SDS011;7275;50.328;8.720;2023-01-24T14:32:29;7.33;;;5.87;;
14381;SDS011;7275;50.328;8.720;2023-01-24T14:35:08;7.17;;;6.27;;
14381;SDS011;7275;50.328;8.720;2023-01-24T14:37:43;7.10;;;5.93;;
14381;SDS011;7275;50.328;8.720;2023-01-24T14:40:11;6.33;;;5.70;;
14381;SDS011;7275;50.328;8.720;2023-01-24T14:42:47;6.10;;;5.43;;
14381;SDS011;7275;50.328;8.720;2023-01-24T14:45:16;5.80;;;5.20;;
14381;SDS011;7275;50.328;8.720;2023-01-24T14:47:48;6.43;;;5.67;;
14381;SDS011;7275;50.328;8.720;2023-01-24T14:50:23;6.60;;;5.70;;
14381;SDS011;7275;50.328;8.720;2023-01-24T14:52:52;6.90;;;6.17;;
14381;SDS011;7275;50.328;8.720;2023-01-24T14:55:30;7.60;;;6.40;;
14381;SDS011;7275;50.328;8.720;2023-01-24T14:58:12;8.03;;;6.73;;
14381;SDS011;7275;50.328;8.720;2023-01-24T15:00:42;7.83;;;6.60;;
14381;SDS011;7275;50.328;8.720;2023-01-24T15:03:13;8.30;;;6.90;;
14381;SDS011;7275;50.328;8.720;2023-01-24T15:05:51;8.10;;;6.13;;
14381;SDS011;7275;50.328;8.720;2023-01-24T15:08:20;7.37;;;6.33;;
14381;SDS011;7275;50.328;8.720;2023-01-24T15:10:51;8.83;;;7.53;;
14381;SDS011;7275;50.328;8.720;2023-01-24T15:13:24;9.23;;;7.63;;
14381;SDS011;7275;50.328;8.720;2023-01-24T15:15:55;8.07;;;7.07;;
14381;SDS011;7275;50.328;8.720;2023-01-24T15:18:26;7.10;;;6.37;;
14381;SDS011;7275;50.328;8.720;2023-01-24T15:21:03;7.67;;;6.23;;
14381;SDS011;7275;50.328;8.720;2023-01-24T15:23:31;9.40;;;7.73;;
14381;SDS011;7275;50.328;8.720;2023-01-24T15:28:48;12.50;;;9.57;;
14381;SDS011;7275;50.328;8.720;2023-01-24T15:31:18;9.00;;;7.37;;
14381;SDS011;7275;50.328;8.720;2023-01-24T15:33:52;9.90;;;7.80;;
14381;SDS011;7275;50.328;8.720;2023-01-24T15:36:23;10.03;;;7.93;;
14381;SDS011;7275;50.328;8.720;2023-01-24T15:38:52;20.57;;;14.27;;
14381;SDS011;7275;50.328;8.720;2023-01-24T15:41:23;16.77;;;12.93;;
14381;SDS011;7275;50.328;8.720;2023-01-24T15:44:11;34.90;;;22.77;;